createdAt,value
2018-12-15T00:00:10.271Z,94651.90
2018-12-15T00:02:38.961Z,94654.91
2018-12-15T00:05:07.649Z,94656.81
2018-12-15T00:07:36.331Z,94663.94
2018-12-15T00:10:05.488Z,94658.94
2018-12-15T00:12:34.131Z,94661.23
2018-12-15T00:15:02.827Z,94665.58
2018-12-15T00:17:31.493Z,94655.05
2018-12-15T00:20:00.142Z,94652.95
2018-12-15T00:22:28.817Z,94660.80
2018-12-15T00:24:57.427Z,94669.83
2018-12-15T00:27:26.413Z,94664.73
2018-12-15T00:29:55.033Z,94661.11
2018-12-15T00:32:23.659Z,94654.91
2018-12-15T00:34:52.263Z,94647.88
2018-12-15T00:37:20.957Z,94655.97
2018-12-15T00:39:49.518Z,94639.63
2018-12-15T00:42:18.140Z,94651.63
2018-12-15T00:44:46.976Z,94655.14
2018-12-15T00:47:15.574Z,94646.32
2018-12-15T00:49:44.240Z,94631.45
2018-12-15T00:52:12.900Z,94656.59
2018-12-15T00:54:41.503Z,94639.95
2018-12-15T00:57:10.144Z,94642.38
2018-12-15T00:59:38.743Z,94645.14
2018-12-15T01:02:07.374Z,94642.25
2018-12-15T01:04:36.058Z,94649.47
2018-12-15T01:07:04.666Z,94646.55
2018-12-15T01:09:33.382Z,94646.77
2018-12-15T01:15:38.903Z,94634.55
2018-12-15T01:18:07.510Z,94637.83
2018-12-15T01:20:36.115Z,94644.98
2018-12-15T01:23:04.913Z,94637.07
2018-12-15T01:25:33.587Z,94633.80
2018-12-15T01:28:02.356Z,94638.22
2018-12-15T01:30:31.014Z,94592.92
2018-12-15T01:32:59.657Z,94640.30
2018-12-15T01:35:28.257Z,94625.64
2018-12-15T01:37:56.845Z,94639.14
2018-12-15T01:40:26.338Z,94634.72
2018-12-15T01:42:55.000Z,94619.05
2018-12-15T01:45:23.606Z,94625.23
2018-12-15T01:47:52.229Z,94621.36
2018-12-15T01:50:20.849Z,94610.88
2018-12-15T01:52:49.400Z,94623.34
2018-12-15T01:55:18.110Z,94624.23
2018-12-15T01:57:46.737Z,94627.09
2018-12-15T02:00:15.530Z,94620.97
2018-12-15T02:02:44.101Z,94625.74
2018-12-15T02:05:12.860Z,94624.14
2018-12-15T02:07:41.444Z,94619.95
2018-12-15T02:10:10.260Z,94594.83
2018-12-15T02:12:38.884Z,94611.05
2018-12-15T02:15:08.436Z,94608.05
2018-12-15T02:17:37.041Z,94605.35
2018-12-15T02:20:06.557Z,94614.81
2018-12-15T02:22:35.179Z,94607.30
2018-12-15T02:25:03.843Z,94604.87
2018-12-15T02:27:32.441Z,94610.80
2018-12-15T02:30:01.056Z,94616.19
2018-12-15T02:32:29.784Z,94614.68
2018-12-15T02:34:58.433Z,94611.77
2018-12-15T02:37:29.100Z,94618.38
2018-12-15T02:39:57.884Z,94607.25
2018-12-15T02:42:26.509Z,94602.95
2018-12-15T02:44:55.178Z,94605.97
2018-12-15T02:47:23.813Z,94617.09
2018-12-15T02:49:52.527Z,94615.20
2018-12-15T02:52:21.157Z,94598.31
2018-12-15T02:54:49.764Z,94578.45
2018-12-15T02:57:18.416Z,94593.62
2018-12-15T02:59:46.997Z,94598.17
2018-12-15T03:02:15.610Z,94600.26
2018-12-15T03:04:44.230Z,94587.21
2018-12-15T03:07:12.783Z,94589.55
2018-12-15T03:09:41.395Z,94609.88
2018-12-15T03:12:10.012Z,94577.41
2018-12-15T03:14:38.785Z,94581.95
2018-12-15T03:17:07.890Z,94603.07
2018-12-15T03:19:36.507Z,94601.06
2018-12-15T03:22:05.162Z,94608.50
2018-12-15T03:24:33.799Z,94611.13
2018-12-15T03:27:02.346Z,94620.08
2018-12-15T03:29:30.909Z,94609.77
2018-12-15T03:32:00.224Z,94614.42
2018-12-15T03:34:28.817Z,94604.51
2018-12-15T03:36:57.381Z,94607.42
2018-12-15T03:39:26.218Z,94606.67
2018-12-15T03:41:55.002Z,94607.66
2018-12-15T03:44:23.703Z,94590.92
2018-12-15T03:46:52.321Z,94618.40
2018-12-15T03:49:21.016Z,94611.11
2018-12-15T03:51:49.644Z,94612.74
2018-12-15T03:54:18.266Z,94598.17
2018-12-15T03:56:46.908Z,94624.50
2018-12-15T03:59:15.571Z,94566.16
2018-12-15T04:01:44.161Z,94603.84
2018-12-15T04:04:12.759Z,94597.86
2018-12-15T04:06:41.403Z,94612.77
2018-12-15T04:09:10.051Z,94600.84
2018-12-15T04:11:38.591Z,94613.66
2018-12-15T04:14:07.329Z,94609.23
2018-12-15T04:16:35.999Z,94599.91
2018-12-15T04:19:04.763Z,94604.73
2018-12-15T04:21:33.460Z,94591.77
2018-12-15T04:24:02.035Z,94601.23
2018-12-15T04:26:30.631Z,94598.80
2018-12-15T04:28:59.291Z,94599.99
2018-12-15T04:31:28.681Z,94621.13
2018-12-15T04:33:57.375Z,94585.45
2018-12-15T04:36:26.090Z,94600.42
2018-12-15T04:38:54.682Z,94604.36
2018-12-15T04:44:02.151Z,94610.59
2018-12-15T04:46:30.860Z,94599.05
2018-12-15T04:48:59.452Z,94580.84
2018-12-15T04:51:28.069Z,94596.67
2018-12-15T04:53:56.633Z,94614.41
2018-12-15T04:56:25.232Z,94603.34
2018-12-15T04:58:53.799Z,94619.34
2018-12-15T05:01:22.434Z,94598.44
2018-12-15T05:03:51.106Z,94601.83
2018-12-15T05:06:19.737Z,94609.88
2018-12-15T05:08:48.357Z,94599.36
2018-12-15T05:11:17.075Z,94606.13
2018-12-15T05:13:45.739Z,94602.89
2018-12-15T05:16:14.312Z,94615.81
2018-12-15T05:18:42.901Z,94590.74
2018-12-15T05:21:11.465Z,94614.81
2018-12-15T05:23:40.027Z,94592.98
2018-12-15T05:26:08.653Z,94607.45
2018-12-15T05:28:37.320Z,94616.29
2018-12-15T05:31:06.062Z,94613.37
2018-12-15T05:33:35.163Z,94617.55
2018-12-15T05:36:03.958Z,94601.93
2018-12-15T05:38:32.624Z,94618.28
2018-12-15T05:41:01.353Z,94600.88
2018-12-15T05:43:29.957Z,94599.81
2018-12-15T05:45:58.572Z,94609.63
2018-12-15T05:48:27.264Z,94596.80
2018-12-15T05:50:55.914Z,94610.52
2018-12-15T05:53:24.524Z,94599.64
2018-12-15T05:55:53.163Z,94608.00
2018-12-15T05:58:21.801Z,94596.89
2018-12-15T06:00:50.907Z,94602.52
2018-12-15T06:03:19.513Z,94590.47
2018-12-15T06:05:48.154Z,94604.15
2018-12-15T06:08:16.711Z,94596.16
2018-12-15T06:10:45.372Z,94584.91
2018-12-15T06:13:13.931Z,94604.46
2018-12-15T06:15:42.543Z,94599.33
2018-12-15T06:18:12.404Z,94590.34
2018-12-15T06:20:41.100Z,94584.73
2018-12-15T06:23:09.828Z,94587.16
2018-12-15T06:25:38.551Z,94591.80
2018-12-15T06:28:07.206Z,94607.59
2018-12-15T06:30:36.019Z,94613.53
2018-12-15T06:33:05.513Z,94605.48
2018-12-15T06:35:34.190Z,94608.98
2018-12-15T06:38:02.911Z,94612.47
2018-12-15T06:40:31.659Z,94615.61
2018-12-15T06:43:00.326Z,94626.41
2018-12-15T06:45:28.991Z,94623.92
2018-12-15T06:47:57.646Z,94632.27
2018-12-15T06:50:26.286Z,94632.19
2018-12-15T06:52:55.035Z,94611.99
2018-12-15T06:56:26.907Z,94621.50
2018-12-15T06:58:55.991Z,94620.08
2018-12-15T07:01:24.585Z,94632.06
2018-12-15T07:03:53.285Z,94636.80
2018-12-15T07:06:21.898Z,94634.41
2018-12-15T07:08:50.507Z,94634.63
2018-12-15T07:11:19.058Z,94635.73
2018-12-15T07:13:47.647Z,94630.38
2018-12-15T07:16:16.456Z,94643.83
2018-12-15T07:18:45.104Z,94649.19
2018-12-15T07:21:13.774Z,94655.83
2018-12-15T07:23:42.350Z,94645.69
2018-12-15T07:26:10.932Z,94640.36
2018-12-15T07:28:43.041Z,94633.59
2018-12-15T07:31:11.630Z,94640.79
2018-12-15T07:33:40.301Z,94641.63
2018-12-15T07:36:09.225Z,94643.63
2018-12-15T07:38:37.825Z,94649.55
2018-12-15T07:41:06.500Z,94658.19
2018-12-15T07:43:36.718Z,94652.44
2018-12-15T07:46:05.314Z,94661.93
2018-12-15T07:48:33.946Z,94650.37
2018-12-15T07:51:02.645Z,94646.02
2018-12-15T07:53:31.310Z,94651.52
2018-12-15T07:55:59.843Z,94649.53
2018-12-15T07:58:28.460Z,94658.26
2018-12-15T08:00:57.152Z,94663.09
2018-12-15T08:03:26.111Z,94666.36
2018-12-15T08:05:54.773Z,94682.39
2018-12-15T08:08:23.537Z,94666.36
2018-12-15T08:10:57.478Z,94676.92
2018-12-15T08:13:30.578Z,94665.37
2018-12-15T08:15:59.294Z,94663.69
2018-12-15T08:18:27.997Z,94660.17
2018-12-15T08:20:56.569Z,94662.90
2018-12-15T08:23:25.202Z,94661.25
2018-12-15T08:25:53.792Z,94656.78
2018-12-15T08:28:22.375Z,94664.03
2018-12-15T08:30:51.041Z,94658.69
2018-12-15T08:33:21.852Z,94667.62
2018-12-15T08:35:50.469Z,94669.71
